METAR Data
IDs: Format: Raw Decoded Include TAF

Data at: 0811 UTC 23 Sep 2018

KMLS 230753Z AUTO 04016KT 10SM OVC006 08/08 A2990 RMK AO2 SLP115 T00830078
KMLS 230714Z AUTO 04017KT 10SM BKN007 08/08 A2990 RMK AO2 T00830078
KMLS 230705Z AUTO 04014KT 10SM SCT008 08/08 A2989 RMK AO2 T00830078
KMLS 230653Z AUTO 04014KT 10SM CLR 09/08 A2989 RMK AO2 SLP113 T00890078 402830067
KMLS 230553Z AUTO 04017KT 10SM CLR 11/09 A2987 RMK AO2 SLP107 T01060089 10261 20106 51004
KMLS 230453Z AUTO 04017KT 10SM CLR 13/09 A2986 RMK AO2 SLP105 T01280094
KMLS 230353Z AUTO 04016KT 10SM CLR 15/11 A2987 RMK AO2 SLP107 T01500106
KMLS 230253Z AUTO 04014KT 10SM CLR 17/10 A2985 RMK AO2 SLP104 T01720100 52008
KMLS 230153Z AUTO 03013KT 10SM CLR 20/08 A2985 RMK AO2 SLP101 T02000078
KMLS 230053Z AUTO 03012KT 10SM CLR 22/06 A2983 RMK AO2 SLP096 T02220061
KMLS 222353Z AUTO 11003KT 10SM CLR 26/06 A2983 RMK AO2 RAB09E20 SLP090 P0000 60000 T02610061 10283 20200 55004
KMLS 222253Z AUTO 10003KT 10SM CLR 28/03 A2981 RMK AO2 RAB31E53 SLP084 P0000 T02780033
KMLS 222153Z AUTO 33005KT 10SM CLR 28/03 A2983 RMK AO2 SLP086 T02830033
KMLS 222053Z AUTO 28006KT 10SM CLR 27/05 A2984 RMK AO2 SLP092 T02670050 56014
KMLS 221953Z AUTO 27009KT 10SM CLR 26/05 A2985 RMK AO2 SLP097 T02610050
KMLS 221853Z AUTO 24006KT 10SM CLR 24/07 A2987 RMK AO2 SLP101 T02440072
KMLS 221753Z AUTO 16004KT 10SM CLR 20/11 A2988 RMK AO2 SLP111 T02000106 10200 20067 56009
KMLS 221653Z AUTO 16005KT 10SM CLR 17/09 A2989 RMK AO2 SLP116 T01720094
KMLS 221553Z AUTO 15006KT 10SM CLR 14/09 A2990 RMK AO2 SLP120 T01440089
KMLS 221453Z AUTO 15009KT 10SM CLR 12/08 A2991 RMK AO2 SLP125 T01170083 55004
KMLS 221353Z AUTO 17004KT 10SM CLR 08/08 A2991 RMK AO2 SLP126 T00830078
KMLS 221325Z AUTO 16004KT 10SM CLR 07/07 A2991 RMK AO2 T00720072
KMLS 221316Z AUTO 14004KT 2SM BR CLR 07/07 A2991 RMK AO2 T00720072
KMLS 221253Z AUTO 15004KT 10SM CLR 07/07 A2991 RMK AO2 SLP126 T00720072
KMLS 221153Z AUTO 15004KT 10SM CLR 08/07 A2993 RMK AO2 SLP128 T00830072 10128 20078 56010
KMLS 221053Z AUTO 17006KT 10SM CLR 08/07 A2994 RMK AO2 SLP131 T00830072
KMLS 220953Z AUTO 16008KT 10SM CLR 11/08 A2994 RMK AO2 SLP133 T01060078
KMLS 220853Z AUTO 16010KT 10SM CLR 11/08 A2996 RMK AO2 SLP139 T01060083 56019
KMLS 220753Z AUTO 16010KT 10SM CLR 11/08 A2998 RMK AO2 SLP146 T01060083
KMLS 220653Z AUTO 14009KT 10SM CLR 12/08 A2999 RMK AO2 SLP154 T01170083 402280056
KMLS 220553Z AUTO 14010KT 10SM CLR 13/08 A3002 RMK AO2 SLP162 T01280083 10217 20128 58004
KMLS 220453Z AUTO 14009KT 10SM CLR 13/08 A3003 RMK AO2 SLP170 T01330083
KMLS 220353Z AUTO 15011KT 10SM CLR 14/09 A3004 RMK AO2 SLP173 T01390089
KMLS 220253Z AUTO 16008KT 10SM CLR 16/08 A3003 RMK AO2 SLP171 T01560078 53005
KMLS 220153Z AUTO 15003KT 10SM CLR 18/06 A3002 RMK AO2 SLP164 T01830061
KMLS 220053Z AUTO 16003KT 10SM CLR 19/07 A3001 RMK AO2 SLP162 T01940067
KMLS 212353Z AUTO 21007KT 10SM CLR 22/06 A3002 RMK AO2 SLP161 T02170061 10228 20128 56018
KMLS 212253Z AUTO 15004KT 10SM CLR 21/08 A3003 RMK AO2 SLP165 T02110078
KMLS 212153Z AUTO 16007G16KT 10SM CLR 21/07 A3005 RMK AO2 SLP172 T02060072
KMLS 212053Z AUTO 14008KT 10SM CLR 19/07 A3007 RMK AO2 SLP184 T01890067 58033